createdAt,value
2023-02-08T00:01:46.370Z,63.57
2023-02-08T00:04:12.852Z,65.37
2023-02-08T00:06:39.453Z,66.97
2023-02-08T00:09:07.136Z,57.80
2023-02-08T00:11:34.826Z,67.27
2023-02-08T00:14:01.314Z,60.33
2023-02-08T00:16:27.789Z,66.53
2023-02-08T00:18:54.293Z,71.80
2023-02-08T00:21:20.786Z,66.27
2023-02-08T00:23:47.316Z,67.93
2023-02-08T00:26:14.777Z,64.03
2023-02-08T00:28:41.280Z,68.17
2023-02-08T00:31:08.175Z,69.13
2023-02-08T00:33:34.965Z,68.30
2023-02-08T00:36:02.498Z,67.20
2023-02-08T00:38:29.378Z,69.50
2023-02-08T00:40:56.113Z,69.70
2023-02-08T00:43:22.799Z,60.67
2023-02-08T00:45:55.233Z,64.53
2023-02-08T00:48:21.871Z,65.83
2023-02-08T00:51:01.940Z,67.47
2023-02-08T00:53:28.510Z,63.50
2023-02-08T00:55:55.992Z,66.40
2023-02-08T00:58:23.241Z,69.33
2023-02-08T01:00:54.004Z,69.00
2023-02-08T01:03:22.014Z,68.07
2023-02-08T01:05:48.481Z,67.17
2023-02-08T01:08:14.997Z,68.83
2023-02-08T01:10:42.042Z,69.97
2023-02-08T01:13:09.852Z,66.73
2023-02-08T01:15:36.537Z,67.47
2023-02-08T01:18:03.599Z,71.03
2023-02-08T01:20:30.221Z,64.10
2023-02-08T01:22:56.966Z,70.00
2023-02-08T01:25:23.442Z,69.40
2023-02-08T01:27:50.064Z,71.00
2023-02-08T01:30:17.635Z,64.13
2023-02-08T01:32:44.197Z,64.87
2023-02-08T01:35:10.731Z,66.10
2023-02-08T01:37:37.204Z,65.07
2023-02-08T01:40:03.852Z,66.70
2023-02-08T01:42:30.367Z,66.10
2023-02-08T01:45:15.601Z,69.23
2023-02-08T01:47:42.951Z,66.63
2023-02-08T01:50:10.014Z,64.37
2023-02-08T01:52:36.807Z,69.80
2023-02-08T01:55:09.427Z,71.47
2023-02-08T01:57:35.927Z,65.53
2023-02-08T02:00:09.072Z,67.63
2023-02-08T02:02:36.534Z,64.80
2023-02-08T02:05:03.286Z,67.13
2023-02-08T02:07:30.202Z,67.20
2023-02-08T02:10:01.867Z,76.77
2023-02-08T02:12:30.257Z,75.03
2023-02-08T02:14:56.778Z,70.40
2023-02-08T02:17:23.286Z,68.53
2023-02-08T02:19:49.619Z,68.00
2023-02-08T02:22:46.680Z,65.93
2023-02-08T02:25:28.395Z,64.33
2023-02-08T02:28:32.294Z,62.43
2023-02-08T02:31:30.500Z,66.00
2023-02-08T02:34:09.509Z,65.00
2023-02-08T02:37:02.263Z,65.47
2023-02-08T02:39:55.516Z,70.43
2023-02-08T02:42:49.833Z,64.40
2023-02-08T02:45:28.233Z,63.17
2023-02-08T02:48:17.390Z,60.70
2023-02-08T02:50:46.638Z,57.57
2023-02-08T02:53:33.369Z,60.87
2023-02-08T02:56:04.396Z,58.53
2023-02-08T02:58:31.465Z,60.33
2023-02-08T03:00:58.800Z,64.90
2023-02-08T03:03:27.593Z,69.93
2023-02-08T03:05:58.790Z,64.40
2023-02-08T03:08:44.025Z,68.90
2023-02-08T03:11:16.742Z,64.83
2023-02-08T03:13:51.457Z,66.73
2023-02-08T03:16:21.315Z,66.27
2023-02-08T03:19:02.338Z,64.57
2023-02-08T03:21:39.115Z,62.90
2023-02-08T03:24:28.683Z,64.33
2023-02-08T03:27:13.342Z,62.33
2023-02-08T03:30:11.035Z,57.50
2023-02-08T03:32:55.161Z,60.50
2023-02-08T03:35:32.865Z,64.60
2023-02-08T03:38:16.251Z,56.67
2023-02-08T03:40:48.201Z,57.20
2023-02-08T03:43:22.032Z,64.07
2023-02-08T03:45:52.102Z,62.43
2023-02-08T03:48:19.128Z,61.23
2023-02-08T03:50:49.643Z,56.53
2023-02-08T03:53:19.371Z,56.03
2023-02-08T03:55:47.058Z,60.73
2023-02-08T03:58:22.228Z,59.10
2023-02-08T04:00:56.055Z,62.73
2023-02-08T04:03:29.772Z,59.60
2023-02-08T04:05:56.429Z,57.67
2023-02-08T04:08:23.058Z,59.77
2023-02-08T04:10:49.630Z,59.37
2023-02-08T04:13:16.057Z,57.70
2023-02-08T04:15:44.214Z,57.60
2023-02-08T04:18:10.875Z,59.47
2023-02-08T04:20:37.306Z,58.07
2023-02-08T04:23:03.713Z,58.13
2023-02-08T04:25:30.176Z,53.53
2023-02-08T04:27:56.658Z,51.47
2023-02-08T04:30:23.100Z,51.43
2023-02-08T04:32:49.537Z,54.23
2023-02-08T04:35:15.955Z,52.67
2023-02-08T04:37:42.376Z,54.60
2023-02-08T04:40:09.443Z,52.50
2023-02-08T04:42:35.922Z,48.93
2023-02-08T04:45:02.340Z,51.80
2023-02-08T04:47:28.754Z,54.97
2023-02-08T04:49:55.196Z,52.13
2023-02-08T04:52:21.732Z,49.70
2023-02-08T04:54:48.150Z,50.10
2023-02-08T04:57:15.024Z,47.83
2023-02-08T04:59:41.474Z,52.70
2023-02-08T05:02:07.956Z,52.13
2023-02-08T05:04:34.532Z,46.30
2023-02-08T05:07:01.088Z,48.53
2023-02-08T05:09:27.602Z,46.63
2023-02-08T05:11:54.098Z,47.03
2023-02-08T05:14:20.597Z,46.50
2023-02-08T05:16:47.030Z,48.30
2023-02-08T05:19:13.526Z,55.37
2023-02-08T05:21:39.962Z,49.37
2023-02-08T05:24:07.199Z,45.63
2023-02-08T05:26:33.721Z,48.67
2023-02-08T05:29:00.217Z,46.50
2023-02-08T05:31:26.786Z,48.63
2023-02-08T05:33:53.463Z,50.73
2023-02-08T05:36:20.655Z,45.43
2023-02-08T05:38:47.179Z,46.37
2023-02-08T05:41:13.615Z,51.77
2023-02-08T05:43:40.041Z,49.27
2023-02-08T05:46:06.518Z,49.43
2023-02-08T05:48:33.226Z,51.43
2023-02-08T05:51:00.504Z,47.73
2023-02-08T05:53:27.377Z,49.03
2023-02-08T05:55:53.792Z,52.40
2023-02-08T05:58:20.218Z,51.60
2023-02-08T06:00:47.076Z,52.80
2023-02-08T06:03:13.691Z,48.57
2023-02-08T06:05:40.806Z,51.23
2023-02-08T06:08:07.778Z,54.07
2023-02-08T06:10:34.584Z,55.30
2023-02-08T06:13:01.589Z,57.00
2023-02-08T06:15:28.334Z,58.43
2023-02-08T06:17:54.941Z,68.33
2023-02-08T06:20:21.357Z,73.40
2023-02-08T06:22:47.828Z,70.07
2023-02-08T06:25:14.358Z,81.63
2023-02-08T06:27:40.836Z,87.53
2023-02-08T06:30:07.464Z,87.07
2023-02-08T06:32:33.934Z,88.50
2023-02-08T06:35:00.385Z,74.57
2023-02-08T06:37:26.857Z,62.13
2023-02-08T06:39:53.296Z,61.87
2023-02-08T06:42:19.722Z,52.07
2023-02-08T06:44:54.690Z,48.37
2023-02-08T06:47:22.754Z,45.87
2023-02-08T06:49:49.205Z,48.10
2023-02-08T06:52:15.632Z,47.37
2023-02-08T06:54:42.059Z,49.23
2023-02-08T06:57:08.646Z,44.67
2023-02-08T06:59:37.276Z,47.93
2023-02-08T07:02:03.867Z,48.23
2023-02-08T07:04:30.403Z,51.20
2023-02-08T07:06:56.944Z,52.50
2023-02-08T07:09:23.429Z,47.77
2023-02-08T07:11:49.828Z,48.07
2023-02-08T07:14:16.292Z,52.17
2023-02-08T07:16:42.728Z,49.23
2023-02-08T07:19:09.191Z,48.60
2023-02-08T07:21:35.661Z,49.87
2023-02-08T07:24:02.142Z,51.50
2023-02-08T07:26:28.537Z,48.33
2023-02-08T07:28:54.949Z,51.60
2023-02-08T07:31:21.442Z,49.83
2023-02-08T07:33:47.925Z,52.67
2023-02-08T07:36:14.349Z,48.97
2023-02-08T07:38:40.834Z,51.23
2023-02-08T07:41:12.960Z,54.90
2023-02-08T07:43:40.367Z,49.20
2023-02-08T07:46:16.915Z,48.57
2023-02-08T07:48:43.493Z,51.47
2023-02-08T07:51:10.617Z,47.83
2023-02-08T07:53:37.084Z,45.80
2023-02-08T07:56:03.727Z,47.30
2023-02-08T07:58:30.289Z,47.67
2023-02-08T08:00:56.768Z,43.63
2023-02-08T08:03:23.172Z,50.93
2023-02-08T08:05:52.577Z,46.57
2023-02-08T08:08:20.143Z,46.73
2023-02-08T08:10:46.606Z,42.83
2023-02-08T08:13:13.775Z,58.80
2023-02-08T08:15:40.734Z,53.80
2023-02-08T08:18:07.677Z,56.00
2023-02-08T08:20:34.172Z,55.53
2023-02-08T08:23:00.983Z,51.53
2023-02-08T08:25:27.568Z,61.17
2023-02-08T08:27:54.381Z,52.23
2023-02-08T08:30:21.809Z,57.83
2023-02-08T08:32:48.289Z,54.20
2023-02-08T08:35:14.781Z,64.00
2023-02-08T08:37:41.248Z,56.93
2023-02-08T08:40:08.756Z,56.27
2023-02-08T08:42:36.365Z,54.10
2023-02-08T08:45:03.958Z,55.37
2023-02-08T08:47:30.763Z,54.17
2023-02-08T08:49:57.219Z,57.80
2023-02-08T08:52:23.789Z,55.20
2023-02-08T08:54:50.252Z,55.50
2023-02-08T08:57:17.174Z,54.47
2023-02-08T08:59:43.612Z,51.87
2023-02-08T09:02:12.778Z,53.93
2023-02-08T09:04:41.008Z,56.93
2023-02-08T09:07:08.539Z,62.93
2023-02-08T09:09:35.394Z,56.30
2023-02-08T09:12:02.815Z,52.23
2023-02-08T09:14:29.269Z,58.03
2023-02-08T09:16:55.683Z,57.87
2023-02-08T09:19:22.095Z,58.80
2023-02-08T09:21:48.568Z,53.83
2023-02-08T09:24:16.080Z,62.83
2023-02-08T09:26:42.520Z,61.47
2023-02-08T09:29:08.922Z,56.93
2023-02-08T09:31:37.751Z,58.90
2023-02-08T09:34:05.475Z,58.17
2023-02-08T09:36:34.182Z,55.43
2023-02-08T09:39:24.324Z,59.17
2023-02-08T09:42:19.516Z,62.23
2023-02-08T09:45:08.405Z,60.87
2023-02-08T09:47:36.539Z,58.50
2023-02-08T09:50:31.698Z,63.07
2023-02-08T09:53:06.583Z,56.57
2023-02-08T09:55:51.935Z,57.47
2023-02-08T09:58:29.623Z,61.43
2023-02-08T10:00:56.502Z,59.40
2023-02-08T10:03:41.529Z,58.23
2023-02-08T10:06:10.625Z,58.53
2023-02-08T10:08:37.224Z,58.67
2023-02-08T10:11:29.383Z,57.83
2023-02-08T10:14:26.780Z,59.80
2023-02-08T10:17:26.625Z,61.57
2023-02-08T10:20:35.159Z,64.00
2023-02-08T10:23:04.651Z,59.67
2023-02-08T10:26:00.161Z,66.03
2023-02-08T10:28:32.708Z,62.87
2023-02-08T10:31:17.986Z,58.73
2023-02-08T10:34:06.174Z,57.57
2023-02-08T10:36:41.832Z,57.90
2023-02-08T10:39:23.909Z,57.93
2023-02-08T10:41:51.243Z,57.23
2023-02-08T10:44:31.866Z,56.80
2023-02-08T10:47:19.668Z,59.07
2023-02-08T10:50:00.247Z,57.43
2023-02-08T10:52:27.262Z,59.80
2023-02-08T10:54:54.574Z,61.20
2023-02-08T10:57:24.298Z,60.30
2023-02-08T11:00:01.455Z,63.33
2023-02-08T11:02:38.433Z,57.23
2023-02-08T11:05:40.531Z,57.80
2023-02-08T11:08:09.869Z,57.50
2023-02-08T11:10:37.697Z,58.13
2023-02-08T11:13:13.172Z,57.70
2023-02-08T11:15:52.531Z,57.47
2023-02-08T11:18:27.728Z,55.90
2023-02-08T11:20:59.645Z,56.43
2023-02-08T11:23:31.998Z,61.37
2023-02-08T11:26:37.386Z,56.33
2023-02-08T11:29:12.016Z,57.13
2023-02-08T11:31:40.625Z,61.73
2023-02-08T11:34:13.309Z,58.33
2023-02-08T11:36:47.154Z,60.33
2023-02-08T11:39:22.717Z,51.53
2023-02-08T11:41:51.564Z,56.77
2023-02-08T11:44:33.483Z,55.70
2023-02-08T11:47:01.932Z,54.80
2023-02-08T11:49:36.176Z,53.80
2023-02-08T11:52:02.911Z,53.33
2023-02-08T11:54:33.870Z,53.07
2023-02-08T11:57:13.430Z,53.03
2023-02-08T11:59:40.008Z,49.93
2023-02-08T12:02:36.711Z,54.80
2023-02-08T12:05:05.020Z,57.53
2023-02-08T12:07:49.604Z,56.80
2023-02-08T12:10:50.940Z,55.67
2023-02-08T12:13:28.084Z,54.43
2023-02-08T12:16:04.840Z,56.13
2023-02-08T12:18:44.397Z,57.23
2023-02-08T12:21:23.127Z,53.70
2023-02-08T12:23:58.535Z,58.77
2023-02-08T12:26:39.782Z,55.20
2023-02-08T12:29:08.812Z,52.20
2023-02-08T12:32:02.721Z,56.23
2023-02-08T12:34:41.582Z,53.23
2023-02-08T12:37:47.033Z,52.10
2023-02-08T12:40:41.154Z,53.60
2023-02-08T12:43:23.021Z,53.30
2023-02-08T12:46:21.880Z,57.80
2023-02-08T12:49:18.427Z,53.13
2023-02-08T12:52:13.172Z,49.93
2023-02-08T12:54:58.060Z,54.27
2023-02-08T12:57:25.946Z,56.60
2023-02-08T13:00:18.100Z,56.17
2023-02-08T13:02:57.282Z,53.83
2023-02-08T13:05:27.873Z,52.13
2023-02-08T13:08:03.729Z,51.40
2023-02-08T13:10:36.837Z,50.80
2023-02-08T13:13:14.536Z,47.00
2023-02-08T13:15:45.083Z,55.83
2023-02-08T13:18:19.032Z,46.77
2023-02-08T13:20:48.317Z,54.80
2023-02-08T13:23:20.772Z,47.23
2023-02-08T13:25:48.551Z,47.13
2023-02-08T13:28:19.628Z,50.97
2023-02-08T13:30:51.816Z,49.03
2023-02-08T13:33:31.248Z,47.70
2023-02-08T13:35:57.931Z,48.70
2023-02-08T13:38:31.067Z,53.80
2023-02-08T13:41:26.671Z,51.13
2023-02-08T13:44:04.206Z,50.07
2023-02-08T13:46:44.930Z,49.57
2023-02-08T13:49:44.796Z,49.70
2023-02-08T13:52:13.128Z,49.47
2023-02-08T13:54:39.638Z,49.83
2023-02-08T13:57:44.332Z,44.10
2023-02-08T14:00:23.298Z,48.30
2023-02-08T14:03:15.248Z,49.07
2023-02-08T14:05:41.936Z,49.40
2023-02-08T14:08:20.081Z,48.97
2023-02-08T14:10:52.012Z,46.23
2023-02-08T14:13:28.070Z,52.90
2023-02-08T14:16:32.902Z,45.03
2023-02-08T14:19:01.478Z,44.10
2023-02-08T14:21:32.591Z,50.53
2023-02-08T14:24:01.905Z,50.77
2023-02-08T14:26:28.843Z,46.03
2023-02-08T14:28:57.853Z,47.03
2023-02-08T14:31:36.397Z,46.37
2023-02-08T14:34:03.022Z,42.77
2023-02-08T14:36:32.523Z,42.17
2023-02-08T14:39:26.206Z,42.67
2023-02-08T14:41:54.685Z,40.97
2023-02-08T14:44:39.480Z,42.90
2023-02-08T14:47:36.877Z,42.00
2023-02-08T14:50:16.573Z,44.00
2023-02-08T14:52:54.324Z,39.60
2023-02-08T14:55:26.622Z,43.77
2023-02-08T14:57:58.358Z,42.83
2023-02-08T15:00:27.521Z,41.17
2023-02-08T15:02:54.602Z,43.47
2023-02-08T15:05:29.492Z,42.07
2023-02-08T15:07:58.042Z,44.47
2023-02-08T15:10:26.049Z,42.47
2023-02-08T15:12:54.569Z,41.90
2023-02-08T15:15:34.301Z,45.97
2023-02-08T15:18:02.460Z,44.93
2023-02-08T15:20:31.178Z,46.10
2023-02-08T15:23:01.392Z,48.40
2023-02-08T15:25:35.687Z,43.17
2023-02-08T15:28:14.441Z,44.07
2023-02-08T15:30:41.112Z,49.70
2023-02-08T15:33:09.857Z,47.40
2023-02-08T15:35:36.485Z,46.03
2023-02-08T15:38:06.951Z,48.30
2023-02-08T15:40:34.824Z,45.63
2023-02-08T15:43:07.232Z,49.37
2023-02-08T15:45:34.289Z,44.97
2023-02-08T15:48:01.548Z,45.07
2023-02-08T15:50:28.885Z,43.87
2023-02-08T15:52:59.652Z,52.07
2023-02-08T15:55:28.418Z,43.53
2023-02-08T15:58:00.570Z,47.77
2023-02-08T16:00:31.478Z,46.37
2023-02-08T16:03:09.783Z,44.13
2023-02-08T16:05:36.793Z,44.83
2023-02-08T16:08:03.626Z,47.03
2023-02-08T16:10:34.327Z,44.53
2023-02-08T16:13:03.871Z,45.33
2023-02-08T16:15:45.067Z,43.57
2023-02-08T16:18:33.092Z,47.73
2023-02-08T16:21:01.377Z,42.80
2023-02-08T16:23:30.076Z,47.13
2023-02-08T16:25:57.672Z,41.07
2023-02-08T16:28:33.308Z,50.20
2023-02-08T16:31:02.090Z,92.93
2023-02-08T16:33:29.466Z,78.53
2023-02-08T16:36:01.778Z,65.10
2023-02-08T16:38:36.253Z,61.50
2023-02-08T16:41:12.736Z,45.33
2023-02-08T16:43:47.842Z,40.30
2023-02-08T16:46:21.359Z,43.50
2023-02-08T16:48:55.861Z,41.53
2023-02-08T16:51:27.785Z,39.73
2023-02-08T16:54:02.556Z,41.53
2023-02-08T16:56:29.141Z,43.67
2023-02-08T16:58:55.542Z,42.47
2023-02-08T17:01:23.443Z,44.57
2023-02-08T17:03:50.234Z,46.90
2023-02-08T17:06:29.777Z,47.57
2023-02-08T17:08:57.153Z,47.13
2023-02-08T17:11:23.688Z,43.63
2023-02-08T17:13:52.097Z,44.10
2023-02-08T17:16:21.735Z,41.93
2023-02-08T17:18:48.613Z,44.10
2023-02-08T17:21:15.383Z,37.17
2023-02-08T17:23:42.925Z,38.07
2023-02-08T17:26:15.419Z,40.30
2023-02-08T17:28:42.907Z,40.73
2023-02-08T17:31:11.941Z,40.50
2023-02-08T17:33:40.188Z,37.30
2023-02-08T17:36:08.078Z,37.10
2023-02-08T17:38:38.923Z,40.63
2023-02-08T17:41:13.469Z,39.23
2023-02-08T17:43:39.916Z,39.63
2023-02-08T17:46:15.592Z,40.13
2023-02-08T17:48:42.170Z,36.73
2023-02-08T17:51:16.889Z,37.17
2023-02-08T17:53:43.862Z,40.10
2023-02-08T17:56:13.308Z,38.17
2023-02-08T17:58:40.853Z,39.17
2023-02-08T18:01:08.418Z,40.93
2023-02-08T18:03:34.943Z,43.07
2023-02-08T18:06:01.369Z,40.70
2023-02-08T18:08:27.958Z,39.00
2023-02-08T18:10:54.406Z,40.80
2023-02-08T18:13:20.952Z,39.73
2023-02-08T18:15:48.147Z,43.30
2023-02-08T18:18:15.456Z,46.00
2023-02-08T18:20:46.168Z,41.30
2023-02-08T18:23:13.248Z,42.77
2023-02-08T18:25:41.177Z,45.63
2023-02-08T18:28:07.887Z,43.97
2023-02-08T18:30:34.292Z,42.23
2023-02-08T18:33:00.702Z,42.27
2023-02-08T18:35:27.108Z,47.17
2023-02-08T18:37:53.710Z,50.03
2023-02-08T18:40:20.209Z,47.40
2023-02-08T18:42:46.650Z,46.63
2023-02-08T18:45:13.083Z,51.90
2023-02-08T18:47:39.740Z,45.83
2023-02-08T18:50:06.590Z,47.70
2023-02-08T18:52:33.976Z,44.87
2023-02-08T18:55:00.454Z,51.90
2023-02-08T18:57:26.938Z,48.23
2023-02-08T18:59:54.188Z,42.97
2023-02-08T19:02:22.614Z,49.97
2023-02-08T19:04:49.421Z,48.43
2023-02-08T19:07:16.306Z,47.63
2023-02-08T19:09:43.941Z,48.53
2023-02-08T19:12:10.457Z,50.07
2023-02-08T19:14:36.961Z,52.20
2023-02-08T19:17:03.527Z,51.37
2023-02-08T19:19:30.050Z,49.67
2023-02-08T19:21:56.475Z,48.67
2023-02-08T19:24:22.973Z,49.50
2023-02-08T19:26:49.513Z,45.53
2023-02-08T19:29:17.960Z,49.47
2023-02-08T19:31:44.996Z,45.13
2023-02-08T19:34:12.279Z,48.20
2023-02-08T19:36:42.312Z,47.80
2023-02-08T19:39:08.852Z,50.23
2023-02-08T19:41:37.756Z,49.97
2023-02-08T19:44:05.953Z,52.10
2023-02-08T19:46:34.611Z,49.20
2023-02-08T19:49:01.633Z,49.87
2023-02-08T19:51:30.319Z,46.03
2023-02-08T19:53:57.946Z,45.93
2023-02-08T19:56:24.373Z,43.90
2023-02-08T19:58:50.795Z,47.90
2023-02-08T20:01:22.173Z,39.07
2023-02-08T20:03:49.997Z,43.30
2023-02-08T20:06:19.217Z,40.07
2023-02-08T20:08:45.972Z,44.10
2023-02-08T20:11:21.411Z,47.03
2023-02-08T20:13:48.220Z,40.50
2023-02-08T20:16:14.910Z,40.30
2023-02-08T20:18:41.399Z,40.10
2023-02-08T20:21:08.186Z,41.30
2023-02-08T20:23:35.330Z,37.67
2023-02-08T20:26:10.749Z,40.30
2023-02-08T20:28:39.191Z,44.00
2023-02-08T20:31:10.605Z,40.80
2023-02-08T20:33:37.153Z,41.83
2023-02-08T20:36:09.450Z,39.67
2023-02-08T20:38:36.901Z,45.83
2023-02-08T20:41:05.126Z,39.80
2023-02-08T20:43:31.951Z,39.67
2023-02-08T20:45:58.392Z,37.63
2023-02-08T20:48:24.870Z,38.97
2023-02-08T20:50:51.281Z,40.33
2023-02-08T20:53:17.746Z,35.90
2023-02-08T20:55:44.505Z,36.60
2023-02-08T20:58:11.228Z,34.17
2023-02-08T21:00:42.334Z,35.27
2023-02-08T21:03:09.185Z,39.13
2023-02-08T21:05:35.609Z,37.43
2023-02-08T21:08:02.050Z,39.43
2023-02-08T21:10:28.485Z,43.27
2023-02-08T21:12:54.910Z,38.30
2023-02-08T21:15:21.528Z,39.30
2023-02-08T21:17:48.022Z,42.07
2023-02-08T21:20:15.091Z,39.23
2023-02-08T21:22:41.600Z,39.53
2023-02-08T21:25:09.330Z,39.23
2023-02-08T21:27:35.769Z,42.10
2023-02-08T21:30:02.265Z,40.60
2023-02-08T21:32:28.694Z,36.83
2023-02-08T21:34:55.104Z,35.60
2023-02-08T21:37:21.578Z,42.53
2023-02-08T21:39:48.008Z,37.13
2023-02-08T21:42:14.500Z,40.17
2023-02-08T21:44:41.017Z,41.33
2023-02-08T21:47:07.418Z,37.87
2023-02-08T21:49:52.574Z,40.10
2023-02-08T21:52:37.668Z,41.67
2023-02-08T21:55:04.184Z,41.33
2023-02-08T21:57:37.830Z,38.87
2023-02-08T22:00:08.041Z,40.57
2023-02-08T22:02:34.485Z,36.53
2023-02-08T22:05:02.241Z,39.30
2023-02-08T22:07:29.355Z,41.80
2023-02-08T22:12:40.189Z,39.13
2023-02-08T22:15:13.655Z,36.53
2023-02-08T22:17:40.081Z,37.43
2023-02-08T22:20:07.568Z,39.33
2023-02-08T22:22:34.154Z,40.00
2023-02-08T22:25:00.569Z,41.80
2023-02-08T22:27:27.656Z,40.27
2023-02-08T22:29:54.053Z,39.80
2023-02-08T22:32:20.583Z,37.20
2023-02-08T22:34:47.863Z,43.77
2023-02-08T22:37:15.321Z,39.70
2023-02-08T22:39:42.200Z,40.20
2023-02-08T22:42:13.263Z,41.77
2023-02-08T22:44:42.110Z,45.47
2023-02-08T22:47:09.623Z,39.23
2023-02-08T22:49:36.857Z,39.70
2023-02-08T22:52:05.500Z,41.77
2023-02-08T22:54:32.729Z,39.37
2023-02-08T22:56:59.158Z,43.90
2023-02-08T22:59:25.625Z,41.83
2023-02-08T23:01:52.080Z,42.37
2023-02-08T23:04:18.559Z,44.03
2023-02-08T23:06:44.983Z,40.63
2023-02-08T23:09:12.185Z,45.43
2023-02-08T23:11:38.705Z,40.70
2023-02-08T23:14:05.125Z,37.33
2023-02-08T23:16:32.565Z,38.63
2023-02-08T23:18:59.085Z,40.27
2023-02-08T23:21:25.543Z,40.83
2023-02-08T23:23:51.982Z,39.67
2023-02-08T23:26:20.075Z,40.00
2023-02-08T23:28:48.640Z,43.07
2023-02-08T23:31:15.190Z,40.23
2023-02-08T23:33:41.888Z,43.27
2023-02-08T23:36:11.193Z,40.47
2023-02-08T23:38:37.845Z,43.37
2023-02-08T23:41:05.725Z,38.27
2023-02-08T23:43:32.616Z,37.97
2023-02-08T23:45:59.370Z,37.93
2023-02-08T23:48:25.800Z,38.93
2023-02-08T23:50:59.478Z,39.60
2023-02-08T23:53:26.878Z,38.13
2023-02-08T23:56:14.436Z,42.63
2023-02-08T23:58:42.166Z,42.50
